Terminal Aerodrome Forecast
Issued by NWS

Home | Current Version | Previous Version | Text Only | Print | Product List | Glossary On
Versions: 1 2 3 4 5 6 7 8 9 10 11 12 13 14 15 16 17
229
FTUS44 KSJT 312340
TAFJCT
TAF
KJCT 312340Z 0100/0124 17008KT P6SM VCTS BKN040CB BKN250
     FM010500 10006KT P6SM VCSH BKN050
     FM010700 13004KT P6SM VCSH BKN015
     FM011600 VRB04KT P6SM VCSH BKN035
     FM011700 VRB04KT P6SM VCSH BKN040=

USA.gov is the U.S. government's official web portal to all federal, state and local government web resources and services.